sensor_id;sensor_type;location;lat;lon;timestamp;pressure;altitude;pressure_sealevel;temperature;humidity
16544;BME280;8384;47.996;7.786;2023-02-08T00:00:09;100563.38;;;-2.64;82.01
16544;BME280;8384;47.996;7.786;2023-02-08T00:02:35;100550.78;;;-2.74;83.08
16544;BME280;8384;47.996;7.786;2023-02-08T00:05:00;100540.69;;;-2.70;83.12
16544;BME280;8384;47.996;7.786;2023-02-08T00:07:25;100553.00;;;-2.79;83.31
16544;BME280;8384;47.996;7.786;2023-02-08T00:09:51;100498.00;;;-3.58;84.76
16544;BME280;8384;47.996;7.786;2023-02-08T00:12:16;100495.97;;;-3.33;84.31
16544;BME280;8384;47.996;7.786;2023-02-08T00:14:41;100529.44;;;-3.18;83.26
16544;BME280;8384;47.996;7.786;2023-02-08T00:17:07;100550.84;;;-2.85;81.03
16544;BME280;8384;47.996;7.786;2023-02-08T00:19:32;100542.28;;;-2.58;75.26
16544;BME280;8384;47.996;7.786;2023-02-08T00:21:57;100538.50;;;-2.55;78.89
16544;BME280;8384;47.996;7.786;2023-02-08T00:24:23;100448.22;;;-3.17;80.27
16544;BME280;8384;47.996;7.786;2023-02-08T00:26:48;100538.31;;;-2.84;81.67
16544;BME280;8384;47.996;7.786;2023-02-08T00:29:13;100514.72;;;-2.91;82.55
16544;BME280;8384;47.996;7.786;2023-02-08T00:31:38;100522.50;;;-2.88;82.92
16544;BME280;8384;47.996;7.786;2023-02-08T00:34:04;100532.56;;;-3.01;83.80
16544;BME280;8384;47.996;7.786;2023-02-08T00:36:29;100526.56;;;-2.93;84.03
16544;BME280;8384;47.996;7.786;2023-02-08T00:38:54;100496.13;;;-3.13;84.05
16544;BME280;8384;47.996;7.786;2023-02-08T00:41:20;100505.59;;;-3.09;83.65
16544;BME280;8384;47.996;7.786;2023-02-08T00:43:45;100519.09;;;-2.90;78.65
16544;BME280;8384;47.996;7.786;2023-02-08T00:46:10;100471.69;;;-3.09;75.36
16544;BME280;8384;47.996;7.786;2023-02-08T00:48:36;100518.78;;;-2.75;75.76
16544;BME280;8384;47.996;7.786;2023-02-08T00:51:08;100462.78;;;-2.88;68.87
16544;BME280;8384;47.996;7.786;2023-02-08T00:53:38;100515.97;;;-2.21;71.07
16544;BME280;8384;47.996;7.786;2023-02-08T00:56:05;100489.25;;;-2.43;70.67
16544;BME280;8384;47.996;7.786;2023-02-08T00:58:30;100509.66;;;-2.20;64.47
16544;BME280;8384;47.996;7.786;2023-02-08T01:00:56;100514.25;;;-2.01;61.48
16544;BME280;8384;47.996;7.786;2023-02-08T01:03:22;100513.19;;;-2.10;63.52
16544;BME280;8384;47.996;7.786;2023-02-08T01:05:48;100498.41;;;-2.14;61.76
16544;BME280;8384;47.996;7.786;2023-02-08T01:08:14;100502.59;;;-1.81;59.39
16544;BME280;8384;47.996;7.786;2023-02-08T01:10:39;100504.66;;;-1.94;57.72
16544;BME280;8384;47.996;7.786;2023-02-08T01:13:04;100405.38;;;-2.43;57.80
16544;BME280;8384;47.996;7.786;2023-02-08T01:15:30;100467.03;;;-1.83;61.04
16544;BME280;8384;47.996;7.786;2023-02-08T01:17:56;100500.69;;;-2.00;67.05
16544;BME280;8384;47.996;7.786;2023-02-08T01:20:22;100506.81;;;-2.19;70.16
16544;BME280;8384;47.996;7.786;2023-02-08T01:22:48;100502.63;;;-2.43;73.14
16544;BME280;8384;47.996;7.786;2023-02-08T01:25:14;100501.75;;;-2.74;74.89
16544;BME280;8384;47.996;7.786;2023-02-08T01:27:39;100421.78;;;-3.20;75.48
16544;BME280;8384;47.996;7.786;2023-02-08T01:30:05;100491.63;;;-2.71;76.11
16544;BME280;8384;47.996;7.786;2023-02-08T01:32:30;100493.00;;;-2.76;77.22
16544;BME280;8384;47.996;7.786;2023-02-08T01:34:56;100420.25;;;-3.34;77.66
16544;BME280;8384;47.996;7.786;2023-02-08T01:37:21;100497.31;;;-3.06;79.15
16544;BME280;8384;47.996;7.786;2023-02-08T01:39:46;100485.16;;;-3.32;80.12
16544;BME280;8384;47.996;7.786;2023-02-08T01:42:17;100487.84;;;-3.10;79.54
16544;BME280;8384;47.996;7.786;2023-02-08T01:45:28;100452.34;;;-3.34;80.10
16544;BME280;8384;47.996;7.786;2023-02-08T01:47:59;100456.94;;;-3.57;80.49
16544;BME280;8384;47.996;7.786;2023-02-08T01:50:29;100484.50;;;-3.56;81.65
16544;BME280;8384;47.996;7.786;2023-02-08T01:52:56;100470.38;;;-3.80;82.41
16544;BME280;8384;47.996;7.786;2023-02-08T01:55:25;100477.00;;;-3.63;81.79
16544;BME280;8384;47.996;7.786;2023-02-08T01:57:53;100482.69;;;-3.56;81.15
16544;BME280;8384;47.996;7.786;2023-02-08T02:00:21;100505.53;;;-3.52;81.49
16544;BME280;8384;47.996;7.786;2023-02-08T02:02:49;100493.88;;;-3.62;82.39
16544;BME280;8384;47.996;7.786;2023-02-08T02:05:19;100410.22;;;-4.18;81.59
16544;BME280;8384;47.996;7.786;2023-02-08T02:07:46;100487.84;;;-3.75;82.33
16544;BME280;8384;47.996;7.786;2023-02-08T02:10:24;100482.03;;;-3.81;83.32
16544;BME280;8384;47.996;7.786;2023-02-08T02:12:51;100437.78;;;-4.17;84.40
16544;BME280;8384;47.996;7.786;2023-02-08T02:15:18;100431.75;;;-4.76;87.59
16544;BME280;8384;47.996;7.786;2023-02-08T02:17:43;100446.66;;;-4.74;87.83
16544;BME280;8384;47.996;7.786;2023-02-08T02:23:11;100459.41;;;-4.55;88.74
16544;BME280;8384;47.996;7.786;2023-02-08T02:28:58;100478.34;;;-4.46;88.39
16544;BME280;8384;47.996;7.786;2023-02-08T02:31:51;100473.38;;;-4.51;88.99
16544;BME280;8384;47.996;7.786;2023-02-08T02:34:25;100485.56;;;-4.83;90.36
16544;BME280;8384;47.996;7.786;2023-02-08T02:45:48;100480.28;;;-5.18;94.28
16544;BME280;8384;47.996;7.786;2023-02-08T02:51:09;100453.81;;;-5.33;94.75
16544;BME280;8384;47.996;7.786;2023-02-08T02:56:37;100456.00;;;-4.45;92.06
16544;BME280;8384;47.996;7.786;2023-02-08T02:59:05;100475.25;;;-4.76;92.76
16544;BME280;8384;47.996;7.786;2023-02-08T03:01:31;100477.47;;;-4.58;93.05
16544;BME280;8384;47.996;7.786;2023-02-08T03:03:57;100457.75;;;-5.14;93.19
16544;BME280;8384;47.996;7.786;2023-02-08T03:11:44;100450.72;;;-5.51;96.05
16544;BME280;8384;47.996;7.786;2023-02-08T03:14:32;100472.31;;;-5.07;97.51
16544;BME280;8384;47.996;7.786;2023-02-08T03:17:12;100456.47;;;-4.63;95.30
16544;BME280;8384;47.996;7.786;2023-02-08T03:22:48;100474.38;;;-4.99;97.21
16544;BME280;8384;47.996;7.786;2023-02-08T03:25:22;100360.16;;;-5.75;97.02
16544;BME280;8384;47.996;7.786;2023-02-08T03:27:58;100477.41;;;-5.04;96.45
16544;BME280;8384;47.996;7.786;2023-02-08T03:30:39;100417.16;;;-5.53;95.68
16544;BME280;8384;47.996;7.786;2023-02-08T03:33:21;100410.53;;;-5.72;95.47
16544;BME280;8384;47.996;7.786;2023-02-08T03:35:52;100473.31;;;-5.32;94.91
16544;BME280;8384;47.996;7.786;2023-02-08T03:38:30;100367.78;;;-5.82;94.59
16544;BME280;8384;47.996;7.786;2023-02-08T03:40:58;100390.19;;;-5.73;94.02
16544;BME280;8384;47.996;7.786;2023-02-08T03:43:29;100360.91;;;-6.09;93.39
16544;BME280;8384;47.996;7.786;2023-02-08T03:46:20;100455.47;;;-5.67;93.74
16544;BME280;8384;47.996;7.786;2023-02-08T03:48:53;100467.59;;;-5.39;93.52
16544;BME280;8384;47.996;7.786;2023-02-08T03:51:20;100468.19;;;-5.47;93.56
16544;BME280;8384;47.996;7.786;2023-02-08T03:53:49;100401.84;;;-5.98;95.04
16544;BME280;8384;47.996;7.786;2023-02-08T03:56:25;100449.44;;;-5.94;95.70
16544;BME280;8384;47.996;7.786;2023-02-08T03:58:58;100403.59;;;-6.35;96.46
16544;BME280;8384;47.996;7.786;2023-02-08T04:01:29;100397.53;;;-6.37;97.24
16544;BME280;8384;47.996;7.786;2023-02-08T04:03:56;100443.31;;;-6.07;98.78
16544;BME280;8384;47.996;7.786;2023-02-08T04:06:22;100421.31;;;-6.09;98.33
16544;BME280;8384;47.996;7.786;2023-02-08T04:08:48;100446.94;;;-5.84;97.11
16544;BME280;8384;47.996;7.786;2023-02-08T04:11:14;100433.19;;;-6.02;96.55
16544;BME280;8384;47.996;7.786;2023-02-08T04:13:40;100413.59;;;-6.25;97.52
16544;BME280;8384;47.996;7.786;2023-02-08T04:16:05;100414.03;;;-6.07;97.94
16544;BME280;8384;47.996;7.786;2023-02-08T04:18:31;100433.88;;;-6.11;97.96
16544;BME280;8384;47.996;7.786;2023-02-08T04:20:56;100427.34;;;-6.07;98.98
16544;BME280;8384;47.996;7.786;2023-02-08T04:23:21;100437.81;;;-6.17;97.16
16544;BME280;8384;47.996;7.786;2023-02-08T04:25:46;100384.84;;;-5.84;94.82
16544;BME280;8384;47.996;7.786;2023-02-08T04:28:12;100418.06;;;-6.01;94.99
16544;BME280;8384;47.996;7.786;2023-02-08T04:30:37;100435.63;;;-6.23;96.46
16544;BME280;8384;47.996;7.786;2023-02-08T04:33:02;100441.25;;;-6.28;97.13
16544;BME280;8384;47.996;7.786;2023-02-08T04:35:28;100456.47;;;-6.30;96.99
16544;BME280;8384;47.996;7.786;2023-02-08T04:37:53;100437.81;;;-6.17;97.04
16544;BME280;8384;47.996;7.786;2023-02-08T04:40:19;100444.22;;;-5.71;94.11
16544;BME280;8384;47.996;7.786;2023-02-08T04:42:44;100433.78;;;-5.74;94.76
16544;BME280;8384;47.996;7.786;2023-02-08T04:45:09;100425.53;;;-6.07;94.99
16544;BME280;8384;47.996;7.786;2023-02-08T04:47:34;100420.22;;;-6.07;95.01
16544;BME280;8384;47.996;7.786;2023-02-08T04:50:00;100432.09;;;-6.24;95.11
16544;BME280;8384;47.996;7.786;2023-02-08T04:52:25;100401.09;;;-6.75;95.41
16544;BME280;8384;47.996;7.786;2023-02-08T04:54:50;100446.75;;;-6.55;96.19
16544;BME280;8384;47.996;7.786;2023-02-08T04:57:16;100438.44;;;-6.64;97.18
16544;BME280;8384;47.996;7.786;2023-02-08T04:59:41;100439.94;;;-6.72;98.01
16544;BME280;8384;47.996;7.786;2023-02-08T05:02:07;100430.66;;;-6.54;98.15
16544;BME280;8384;47.996;7.786;2023-02-08T05:04:32;100437.81;;;-6.54;98.09
16544;BME280;8384;47.996;7.786;2023-02-08T05:06:57;100423.88;;;-6.71;97.51
16544;BME280;8384;47.996;7.786;2023-02-08T05:09:23;100411.03;;;-6.77;96.88
16544;BME280;8384;47.996;7.786;2023-02-08T05:11:48;100434.31;;;-6.68;97.41
16544;BME280;8384;47.996;7.786;2023-02-08T05:14:14;100435.28;;;-6.95;98.54
16544;BME280;8384;47.996;7.786;2023-02-08T05:16:39;100421.66;;;-6.77;98.88
16544;BME280;8384;47.996;7.786;2023-02-08T05:19:04;100348.84;;;-7.39;97.98
16544;BME280;8384;47.996;7.786;2023-02-08T05:21:30;100427.16;;;-6.54;97.22
16544;BME280;8384;47.996;7.786;2023-02-08T05:23:55;100426.75;;;-6.74;96.96
16544;BME280;8384;47.996;7.786;2023-02-08T05:26:20;100405.41;;;-6.85;97.10
16544;BME280;8384;47.996;7.786;2023-02-08T05:28:46;100394.03;;;-7.00;96.08
16544;BME280;8384;47.996;7.786;2023-02-08T05:33:38;100394.03;;;-7.13;96.95
16544;BME280;8384;47.996;7.786;2023-02-08T05:36:03;100425.91;;;-6.87;96.62
16544;BME280;8384;47.996;7.786;2023-02-08T05:38:29;100427.28;;;-7.08;96.43
16544;BME280;8384;47.996;7.786;2023-02-08T05:40:54;100410.91;;;-7.27;97.99
16544;BME280;8384;47.996;7.786;2023-02-08T05:43:19;100409.00;;;-7.38;98.13
16544;BME280;8384;47.996;7.786;2023-02-08T05:45:44;100408.25;;;-7.40;99.12
16544;BME280;8384;47.996;7.786;2023-02-08T05:48:10;100421.75;;;-7.30;99.62
16544;BME280;8384;47.996;7.786;2023-02-08T05:50:35;100432.00;;;-7.51;100.00
16544;BME280;8384;47.996;7.786;2023-02-08T05:53:00;100431.66;;;-7.19;99.60
16544;BME280;8384;47.996;7.786;2023-02-08T05:55:25;100423.34;;;-7.15;99.20
16544;BME280;8384;47.996;7.786;2023-02-08T05:57:52;100378.69;;;-7.48;100.00
16544;BME280;8384;47.996;7.786;2023-02-08T06:00:17;100442.63;;;-7.11;99.73
16544;BME280;8384;47.996;7.786;2023-02-08T06:02:44;100436.88;;;-7.18;99.84
16544;BME280;8384;47.996;7.786;2023-02-08T06:05:09;100426.97;;;-7.29;100.00
16544;BME280;8384;47.996;7.786;2023-02-08T06:07:34;100442.81;;;-7.01;99.17
16544;BME280;8384;47.996;7.786;2023-02-08T06:10:00;100447.38;;;-7.29;100.00
16544;BME280;8384;47.996;7.786;2023-02-08T06:12:25;100446.75;;;-7.07;100.00
16544;BME280;8384;47.996;7.786;2023-02-08T06:14:50;100433.72;;;-7.50;98.79
16544;BME280;8384;47.996;7.786;2023-02-08T06:17:15;100441.19;;;-7.43;99.70
16544;BME280;8384;47.996;7.786;2023-02-08T06:19:41;100421.53;;;-7.80;99.62
16544;BME280;8384;47.996;7.786;2023-02-08T06:22:06;100434.44;;;-7.61;99.79
16544;BME280;8384;47.996;7.786;2023-02-08T06:24:31;100443.44;;;-7.24;98.82
16544;BME280;8384;47.996;7.786;2023-02-08T06:26:56;100413.34;;;-7.50;98.36
16544;BME280;8384;47.996;7.786;2023-02-08T06:29:22;100449.13;;;-7.56;98.88
16544;BME280;8384;47.996;7.786;2023-02-08T06:31:47;100461.69;;;-7.45;99.63
16544;BME280;8384;47.996;7.786;2023-02-08T06:34:12;100459.31;;;-7.09;98.80
16544;BME280;8384;47.996;7.786;2023-02-08T06:36:37;100452.13;;;-7.34;98.95
16544;BME280;8384;47.996;7.786;2023-02-08T06:39:03;100455.00;;;-7.38;99.81
16544;BME280;8384;47.996;7.786;2023-02-08T06:41:28;100458.19;;;-7.32;100.00
16544;BME280;8384;47.996;7.786;2023-02-08T06:43:53;100470.56;;;-6.93;100.00
16544;BME280;8384;47.996;7.786;2023-02-08T06:46:19;100477.50;;;-7.03;100.00
16544;BME280;8384;47.996;7.786;2023-02-08T06:48:44;100469.53;;;-7.03;100.00
16544;BME280;8384;47.996;7.786;2023-02-08T06:51:09;100283.34;;;-8.18;100.00
16544;BME280;8384;47.996;7.786;2023-02-08T06:53:34;100481.53;;;-6.97;100.00
16544;BME280;8384;47.996;7.786;2023-02-08T06:56:00;100432.94;;;-7.65;100.00
16544;BME280;8384;47.996;7.786;2023-02-08T06:58:25;100480.72;;;-7.38;100.00
16544;BME280;8384;47.996;7.786;2023-02-08T07:00:50;100476.66;;;-7.57;100.00
16544;BME280;8384;47.996;7.786;2023-02-08T07:03:16;100473.28;;;-7.73;100.00
16544;BME280;8384;47.996;7.786;2023-02-08T07:05:44;100494.22;;;-7.41;100.00
16544;BME280;8384;47.996;7.786;2023-02-08T07:08:09;100485.53;;;-7.17;100.00
16544;BME280;8384;47.996;7.786;2023-02-08T07:10:37;100482.38;;;-6.97;100.00
16544;BME280;8384;47.996;7.786;2023-02-08T07:13:03;100497.09;;;-6.65;100.00
16544;BME280;8384;47.996;7.786;2023-02-08T07:15:28;100498.88;;;-6.66;100.00
16544;BME280;8384;47.996;7.786;2023-02-08T07:17:55;100505.47;;;-6.58;100.00
16544;BME280;8384;47.996;7.786;2023-02-08T07:20:21;100506.53;;;-6.48;100.00
16544;BME280;8384;47.996;7.786;2023-02-08T07:22:46;100489.59;;;-6.60;100.00
16544;BME280;8384;47.996;7.786;2023-02-08T07:25:11;100492.69;;;-6.40;100.00
16544;BME280;8384;47.996;7.786;2023-02-08T07:27:37;100519.72;;;-6.21;100.00
16544;BME280;8384;47.996;7.786;2023-02-08T07:30:02;100529.53;;;-5.97;100.00
16544;BME280;8384;47.996;7.786;2023-02-08T07:32:28;100521.41;;;-5.95;100.00
16544;BME280;8384;47.996;7.786;2023-02-08T07:34:53;100502.16;;;-6.23;100.00
16544;BME280;8384;47.996;7.786;2023-02-08T07:37:18;100489.47;;;-6.20;100.00
16544;BME280;8384;47.996;7.786;2023-02-08T07:39:44;100494.56;;;-5.92;100.00
16544;BME280;8384;47.996;7.786;2023-02-08T07:42:10;100531.84;;;-5.31;100.00
16544;BME280;8384;47.996;7.786;2023-02-08T07:44:36;100530.81;;;-5.17;100.00
16544;BME280;8384;47.996;7.786;2023-02-08T07:47:03;100533.22;;;-5.14;100.00
16544;BME280;8384;47.996;7.786;2023-02-08T07:49:29;100488.84;;;-5.26;100.00
16544;BME280;8384;47.996;7.786;2023-02-08T07:51:54;100535.28;;;-5.17;99.17
16544;BME280;8384;47.996;7.786;2023-02-08T07:54:19;100511.97;;;-5.27;99.32
16544;BME280;8384;47.996;7.786;2023-02-08T07:56:45;100496.84;;;-5.26;98.76
16544;BME280;8384;47.996;7.786;2023-02-08T07:59:10;100505.84;;;-5.16;98.79
16544;BME280;8384;47.996;7.786;2023-02-08T08:01:35;100500.19;;;-5.11;98.68
16544;BME280;8384;47.996;7.786;2023-02-08T08:04:01;100514.19;;;-4.85;97.93
16544;BME280;8384;47.996;7.786;2023-02-08T08:06:26;100524.91;;;-4.50;96.51
16544;BME280;8384;47.996;7.786;2023-02-08T08:08:51;100532.44;;;-4.33;96.09
16544;BME280;8384;47.996;7.786;2023-02-08T08:11:18;100526.38;;;-4.35;94.96
16544;BME280;8384;47.996;7.786;2023-02-08T08:13:44;100537.56;;;-4.41;95.30
16544;BME280;8384;47.996;7.786;2023-02-08T08:16:09;100481.13;;;-4.25;95.50
16544;BME280;8384;47.996;7.786;2023-02-08T08:18:35;100533.25;;;-3.64;94.09
16544;BME280;8384;47.996;7.786;2023-02-08T08:21:01;100507.72;;;-3.57;92.28
16544;BME280;8384;47.996;7.786;2023-02-08T08:23:26;100494.38;;;-3.68;91.01
16544;BME280;8384;47.996;7.786;2023-02-08T08:25:53;100495.34;;;-3.69;91.25
16544;BME280;8384;47.996;7.786;2023-02-08T08:28:19;100514.19;;;-3.71;91.28
16544;BME280;8384;47.996;7.786;2023-02-08T08:30:44;100483.25;;;-3.85;90.29
16544;BME280;8384;47.996;7.786;2023-02-08T08:33:10;100481.41;;;-3.73;90.63
16544;BME280;8384;47.996;7.786;2023-02-08T08:35:38;100516.34;;;-3.21;90.74
16544;BME280;8384;47.996;7.786;2023-02-08T08:38:03;100513.66;;;-2.67;88.26
16544;BME280;8384;47.996;7.786;2023-02-08T08:40:29;100520.31;;;-1.99;82.58
16544;BME280;8384;47.996;7.786;2023-02-08T08:42:55;100517.75;;;-2.01;75.14
16544;BME280;8384;47.996;7.786;2023-02-08T08:45:20;100520.72;;;-1.94;70.24
16544;BME280;8384;47.996;7.786;2023-02-08T08:47:45;100470.50;;;-2.43;70.52
16544;BME280;8384;47.996;7.786;2023-02-08T08:50:11;100500.72;;;-1.90;69.48
16544;BME280;8384;47.996;7.786;2023-02-08T08:52:36;100502.31;;;-1.77;68.13
16544;BME280;8384;47.996;7.786;2023-02-08T08:55:01;100522.84;;;-1.27;66.12
16544;BME280;8384;47.996;7.786;2023-02-08T08:57:26;100487.06;;;-1.67;67.29
16544;BME280;8384;47.996;7.786;2023-02-08T08:59:52;100506.44;;;-1.54;65.93
16544;BME280;8384;47.996;7.786;2023-02-08T09:02:17;100513.69;;;-1.25;64.59
16544;BME280;8384;47.996;7.786;2023-02-08T09:04:42;100526.66;;;-1.30;65.33
16544;BME280;8384;47.996;7.786;2023-02-08T09:07:09;100519.31;;;-1.28;64.95
16544;BME280;8384;47.996;7.786;2023-02-08T09:09:35;100516.78;;;-1.19;64.01
16544;BME280;8384;47.996;7.786;2023-02-08T09:12:01;100485.00;;;-1.54;64.28
16544;BME280;8384;47.996;7.786;2023-02-08T09:14:27;100511.28;;;-1.28;65.38
16544;BME280;8384;47.996;7.786;2023-02-08T09:16:52;100458.84;;;-0.83;62.74
16544;BME280;8384;47.996;7.786;2023-02-08T09:19:17;100514.00;;;-0.03;59.42
16544;BME280;8384;47.996;7.786;2023-02-08T09:21:43;100512.69;;;0.01;58.76
16544;BME280;8384;47.996;7.786;2023-02-08T09:24:09;100519.13;;;0.18;59.12
16544;BME280;8384;47.996;7.786;2023-02-08T09:26:34;100507.41;;;0.09;59.64
16544;BME280;8384;47.996;7.786;2023-02-08T09:29:00;100507.81;;;0.14;60.51
16544;BME280;8384;47.996;7.786;2023-02-08T09:31:27;100441.25;;;-0.02;58.70
16544;BME280;8384;47.996;7.786;2023-02-08T09:33:55;100527.88;;;0.48;58.31
16544;BME280;8384;47.996;7.786;2023-02-08T09:36:22;100510.97;;;0.56;56.06
16544;BME280;8384;47.996;7.786;2023-02-08T09:38:48;100512.75;;;0.65;56.07
16544;BME280;8384;47.996;7.786;2023-02-08T09:41:29;100514.81;;;0.53;55.69
16544;BME280;8384;47.996;7.786;2023-02-08T09:46:52;100506.63;;;-0.39;57.72
16544;BME280;8384;47.996;7.786;2023-02-08T09:49:23;100501.41;;;-0.40;58.11
16544;BME280;8384;47.996;7.786;2023-02-08T09:52:01;100492.09;;;-0.08;59.21
16544;BME280;8384;47.996;7.786;2023-02-08T09:54:35;100506.44;;;0.10;55.86
16544;BME280;8384;47.996;7.786;2023-02-08T09:57:05;100507.94;;;-0.05;56.83
16544;BME280;8384;47.996;7.786;2023-02-08T09:59:34;100506.78;;;0.25;56.69
16544;BME280;8384;47.996;7.786;2023-02-08T10:05:02;100473.44;;;0.36;54.44
16544;BME280;8384;47.996;7.786;2023-02-08T10:07:29;100502.78;;;0.29;54.21
16544;BME280;8384;47.996;7.786;2023-02-08T10:10:00;100503.28;;;0.79;54.12
16544;BME280;8384;47.996;7.786;2023-02-08T10:15:50;100514.66;;;1.09;52.32
16544;BME280;8384;47.996;7.786;2023-02-08T10:18:27;100502.81;;;1.02;52.35
16544;BME280;8384;47.996;7.786;2023-02-08T10:21:21;100478.44;;;0.49;52.80
16544;BME280;8384;47.996;7.786;2023-02-08T10:24:02;100505.22;;;0.51;53.31
16544;BME280;8384;47.996;7.786;2023-02-08T10:26:39;100480.91;;;0.61;53.21
16544;BME280;8384;47.996;7.786;2023-02-08T10:32:23;100508.28;;;1.10;51.96
16544;BME280;8384;47.996;7.786;2023-02-08T10:35:16;100513.75;;;1.71;49.67
16544;BME280;8384;47.996;7.786;2023-02-08T10:37:46;100484.56;;;1.14;50.89
16544;BME280;8384;47.996;7.786;2023-02-08T10:40:31;100508.50;;;0.81;53.05
16544;BME280;8384;47.996;7.786;2023-02-08T10:43:14;100474.38;;;1.26;50.12
16544;BME280;8384;47.996;7.786;2023-02-08T10:45:51;100486.63;;;1.46;51.26
16544;BME280;8384;47.996;7.786;2023-02-08T10:51:01;100475.13;;;2.05;48.46
16544;BME280;8384;47.996;7.786;2023-02-08T10:53:26;100475.31;;;2.12;48.91
16544;BME280;8384;47.996;7.786;2023-02-08T10:55:52;100475.28;;;2.55;47.49
16544;BME280;8384;47.996;7.786;2023-02-08T10:58:21;100466.00;;;2.58;47.48
16544;BME280;8384;47.996;7.786;2023-02-08T11:00:48;100465.53;;;2.03;48.37
16544;BME280;8384;47.996;7.786;2023-02-08T11:05:41;100420.22;;;1.72;47.15
16544;BME280;8384;47.996;7.786;2023-02-08T11:08:08;100475.19;;;2.14;47.36
16544;BME280;8384;47.996;7.786;2023-02-08T11:10:34;100281.72;;;1.13;47.88
16544;BME280;8384;47.996;7.786;2023-02-08T11:13:20;100462.78;;;2.54;47.55
16544;BME280;8384;47.996;7.786;2023-02-08T11:15:55;100464.28;;;2.48;47.00
16544;BME280;8384;47.996;7.786;2023-02-08T11:18:31;100431.22;;;2.46;45.28
16544;BME280;8384;47.996;7.786;2023-02-08T11:21:03;100452.69;;;3.06;44.29
16544;BME280;8384;47.996;7.786;2023-02-08T11:23:31;100442.56;;;2.91;44.48
16544;BME280;8384;47.996;7.786;2023-02-08T11:26:20;100447.47;;;2.63;45.24
16544;BME280;8384;47.996;7.786;2023-02-08T11:28:59;100451.06;;;3.69;45.19
16544;BME280;8384;47.996;7.786;2023-02-08T11:31:24;100440.28;;;3.53;46.57
16544;BME280;8384;47.996;7.786;2023-02-08T11:34:01;100429.47;;;3.93;46.73
16544;BME280;8384;47.996;7.786;2023-02-08T11:36:28;100432.41;;;3.26;47.07
16544;BME280;8384;47.996;7.786;2023-02-08T11:38:55;100425.69;;;2.81;48.74
16544;BME280;8384;47.996;7.786;2023-02-08T11:41:21;100396.66;;;2.75;48.46
16544;BME280;8384;47.996;7.786;2023-02-08T11:44:00;100426.88;;;3.68;48.58
16544;BME280;8384;47.996;7.786;2023-02-08T11:46:28;100425.69;;;4.10;47.81
16544;BME280;8384;47.996;7.786;2023-02-08T11:48:56;100425.59;;;3.55;48.10
16544;BME280;8384;47.996;7.786;2023-02-08T11:51:27;100435.75;;;3.93;48.34
16544;BME280;8384;47.996;7.786;2023-02-08T11:53:54;100407.59;;;3.71;48.34
16544;BME280;8384;47.996;7.786;2023-02-08T11:56:29;100428.53;;;3.04;49.70
16544;BME280;8384;47.996;7.786;2023-02-08T11:59:04;100424.25;;;3.35;48.22
16544;BME280;8384;47.996;7.786;2023-02-08T12:01:34;100410.84;;;2.77;50.04
16544;BME280;8384;47.996;7.786;2023-02-08T12:04:01;100408.97;;;3.67;48.78
16544;BME280;8384;47.996;7.786;2023-02-08T12:07:21;100407.47;;;3.64;47.11
16544;BME280;8384;47.996;7.786;2023-02-08T12:12:51;100396.41;;;3.42;48.67
16544;BME280;8384;47.996;7.786;2023-02-08T12:21:11;100362.03;;;4.14;45.09
16544;BME280;8384;47.996;7.786;2023-02-08T12:23:49;100371.50;;;4.65;44.66
16544;BME280;8384;47.996;7.786;2023-02-08T12:26:33;100383.63;;;4.31;44.86
16544;BME280;8384;47.996;7.786;2023-02-08T12:32:05;100384.34;;;2.72;49.93
16544;BME280;8384;47.996;7.786;2023-02-08T12:43:46;100377.75;;;3.48;47.44
16544;BME280;8384;47.996;7.786;2023-02-08T12:46:32;100363.66;;;3.69;47.23
16544;BME280;8384;47.996;7.786;2023-02-08T12:54:13;100370.84;;;4.16;45.04
16544;BME280;8384;47.996;7.786;2023-02-08T12:56:45;100327.75;;;3.52;45.14
16544;BME280;8384;47.996;7.786;2023-02-08T12:59:21;100349.63;;;4.05;46.05
16544;BME280;8384;47.996;7.786;2023-02-08T13:01:50;100368.41;;;4.68;43.49
16544;BME280;8384;47.996;7.786;2023-02-08T13:04:31;100359.63;;;3.65;45.21
16544;BME280;8384;47.996;7.786;2023-02-08T13:07:06;100357.56;;;3.98;45.93
16544;BME280;8384;47.996;7.786;2023-02-08T13:09:45;100358.91;;;3.31;47.01
16544;BME280;8384;47.996;7.786;2023-02-08T13:12:20;100354.53;;;3.70;46.24
16544;BME280;8384;47.996;7.786;2023-02-08T13:14:53;100351.88;;;3.93;45.74
16544;BME280;8384;47.996;7.786;2023-02-08T13:17:21;100350.88;;;4.41;46.29
16544;BME280;8384;47.996;7.786;2023-02-08T13:22:31;100331.78;;;3.56;47.35
16544;BME280;8384;47.996;7.786;2023-02-08T13:24:58;100313.75;;;3.48;47.67
16544;BME280;8384;47.996;7.786;2023-02-08T13:27:25;100341.06;;;4.63;46.08
16544;BME280;8384;47.996;7.786;2023-02-08T13:29:51;100342.63;;;5.25;44.74
16544;BME280;8384;47.996;7.786;2023-02-08T13:34:47;100322.88;;;4.10;45.32
16544;BME280;8384;47.996;7.786;2023-02-08T13:37:19;100134.56;;;2.28;45.89
16544;BME280;8384;47.996;7.786;2023-02-08T13:39:46;100333.78;;;3.94;45.32
16544;BME280;8384;47.996;7.786;2023-02-08T13:42:27;100292.47;;;3.45;45.99
16544;BME280;8384;47.996;7.786;2023-02-08T13:44:55;100335.88;;;3.83;44.81
16544;BME280;8384;47.996;7.786;2023-02-08T13:47:28;100322.41;;;3.98;45.87
16544;BME280;8384;47.996;7.786;2023-02-08T13:50:02;100329.78;;;4.36;45.44
16544;BME280;8384;47.996;7.786;2023-02-08T13:55:42;100330.97;;;4.10;45.44
16544;BME280;8384;47.996;7.786;2023-02-08T14:03:26;100322.31;;;4.76;43.10
16544;BME280;8384;47.996;7.786;2023-02-08T14:05:55;100329.72;;;5.43;42.76
16544;BME280;8384;47.996;7.786;2023-02-08T14:08:29;100316.44;;;4.49;43.61
16544;BME280;8384;47.996;7.786;2023-02-08T14:11:06;100322.41;;;5.43;42.38
16544;BME280;8384;47.996;7.786;2023-02-08T14:13:47;100279.91;;;4.84;43.03
16544;BME280;8384;47.996;7.786;2023-02-08T14:18:54;100288.78;;;5.07;42.49
16544;BME280;8384;47.996;7.786;2023-02-08T14:21:43;100316.72;;;5.08;42.43
16544;BME280;8384;47.996;7.786;2023-02-08T14:24:42;100316.84;;;5.15;43.21
16544;BME280;8384;47.996;7.786;2023-02-08T14:27:24;100301.66;;;4.75;43.38
16544;BME280;8384;47.996;7.786;2023-02-08T14:32:24;100327.75;;;4.53;43.70
16544;BME280;8384;47.996;7.786;2023-02-08T14:35:04;100307.94;;;4.14;44.90
16544;BME280;8384;47.996;7.786;2023-02-08T14:37:33;100329.66;;;4.68;44.13
16544;BME280;8384;47.996;7.786;2023-02-08T14:45:35;100333.63;;;5.55;41.86
16544;BME280;8384;47.996;7.786;2023-02-08T14:50:35;100319.53;;;5.30;42.22
16544;BME280;8384;47.996;7.786;2023-02-08T14:53:05;100306.22;;;5.50;42.37